Flight Track Log - Related Links

Times and Time Zones

All times are in EDT time to prevent confusion due to time zone crossing. See the SWA268 flight status page for this flight to view local times or setup timezone preferences in your user account.

Time Position Orientation Groundspeed Altitude Reporting Facility
EDT Latitude Longitude Course Direction KTS km/h feet Rate Location/Type
Fri 01:55:14 PM 36.0744 -115.2006 268° West 179 332 4.000  Level Los Angeles Center
Fri 01:56:03 PM 36.0628 -115.2544 255° West 211 391 6.000 2.507 Climbing Los Angeles Center
Fri 01:56:21 PM 36.0419 -115.2697 211° Southwest 244 452 6.800 968 Climbing Los Angeles Center
Fri 01:57:05 PM 35.9944 -115.2903 199° South 260 481 7.000 197 Climbing Los Angeles Center
Fri 01:57:22 PM 35.9706 -115.2986 196° South 283 525 7.000 1.258 Level Los Angeles Center
Fri 01:58:07 PM 35.9175 -115.2797 164° South 276 512 8.300 2.411 Climbing Los Angeles Center
Fri 01:59:09 PM 35.8561 -115.2169 140° Southeast 299 554 11.300 3.072 Climbing Los Angeles Center
Fri 02:00:12 PM 35.8292 -115.1039 106° East 343 636 14.700 3.120 Climbing Los Angeles Center
Fri 02:01:14 PM 35.8303 -114.9792 89° East 367 679 17.800 3.242 Climbing Los Angeles Center
Fri 02:02:16 PM 35.8439 -114.8231 84° East 383 710 21.400 2.952 Climbing Los Angeles Center
Fri 02:03:18 PM 35.8567 -114.6867 83° East 395 732 23.900 1.742 Climbing Los Angeles Center
Fri 02:04:20 PM 35.8683 -114.5436 84° East 412 763 25.000 677 Climbing Los Angeles Center
Fri 02:05:22 PM 35.8817 -114.3969 84° East 427 790 25.300 1.103 Climbing Los Angeles Center
Fri 02:06:36 PM 35.8942 -114.2511 84° East 429 795 27.500 2.058 Climbing Los Angeles Center
Fri 02:07:39 PM 35.9097 -114.0711 84° East 438 811 30.000 2.256 Climbing Los Angeles Center
Fri 02:08:41 PM 35.9219 -113.8856 85° East 449 832 32.200 2.129 Climbing Los Angeles Center
Fri 02:09:43 PM 35.8961 -113.7331 102° East 453 838 34.400 1.694 Climbing Los Angeles Center
Fri 02:10:45 PM 35.8736 -113.5819 100° East 452 837 35.700 1.113 Climbing Los Angeles Center
Fri 02:11:47 PM 35.8478 -113.4242 101° East 464 859 36.700 1.065 Climbing Los Angeles Center
Fri 02:12:49 PM 35.8228 -113.2672 101° East 467 864 37.900 1.113 Climbing Los Angeles Center
Fri 02:13:51 PM 35.7967 -113.1103 102° East 467 864 39.000 532 Climbing Los Angeles Center
Fri 02:14:53 PM 35.7658 -112.9244 102° East 463 858 39.000  Level Los Angeles Center
Fri 02:15:55 PM 35.7411 -112.7697 101° East 461 855 39.000  Level Los Angeles Center
Fri 02:16:57 PM 35.7158 -112.6161 101° East 459 850 39.000  Level Los Angeles Center
Fri 02:17:59 PM 35.6906 -112.4625 101° East 458 848 39.000  Level Los Angeles Center
Fri 02:19:02 PM 35.6783 -112.3064 95° East 459 850 39.000  Level Los Angeles Center
Fri 02:20:04 PM 35.6714 -112.1514 93° East 458 848 39.000  Level Los Angeles Center
Fri 02:21:06 PM 35.6639 -111.9619 93° East 461 855 39.000  Level Los Angeles Center
Fri 02:22:08 PM 35.6542 -111.8011 94° East 472 874 39.000  Level Los Angeles Center
Fri 02:23:10 PM 35.6464 -111.6397 93° East 475 880 39.000  Level Los Angeles Center
Fri 02:24:09 PM 35.6369 -111.4775 94° East 476 882 39.000  Level Albuquerque Center
Fri 02:25:10 PM 35.6303 -111.3194 93° East 474 877 39.000  Level Albuquerque Center
Fri 02:26:12 PM 35.6219 -111.1381 93° East 476 882 39.000  Level Albuquerque Center
Fri 02:27:14 PM 35.6117 -110.9814 95° East 479 887 39.000  Level Albuquerque Center
Fri 02:28:16 PM 35.6008 -110.7992 94° East 479 887 39.000  Level Albuquerque Center
Fri 02:29:18 PM 35.5908 -110.6422 94° East 481 892 39.000  Level Albuquerque Center
Fri 02:30:20 PM 35.5811 -110.4592 94° East 481 892 39.000  Level Albuquerque Center
Fri 02:31:22 PM 35.5708 -110.3014 95° East 484 896 39.000  Level Albuquerque Center
Fri 02:32:24 PM 35.5611 -110.1175 94° East 484 896 39.000  Level Albuquerque Center
Fri 02:33:26 PM 35.5511 -109.9594 94° East 486 900 39.000  Level Albuquerque Center
Fri 02:34:28 PM 35.5394 -109.7753 94° East 486 900 39.000  Level Albuquerque Center
Fri 02:35:30 PM 35.5292 -109.6164 94° East 487 901 39.000 -97 Level Albuquerque Center
Fri 02:36:32 PM 35.5156 -109.4292 95° East 492 911 38.800 -581 Descending Albuquerque Center
Fri 02:37:34 PM 35.5056 -109.2697 94° East 493 912 37.800 -919 Descending Albuquerque Center
Fri 02:38:36 PM 35.4936 -109.1147 95° East 485 898 36.900 -927 Descending Albuquerque Center
Fri 02:39:37 PM 35.4822 -108.9300 94° East 487 901 35.900 -927 Descending Albuquerque Center
Fri 02:40:39 PM 35.4783 -108.7708 92° East 489 906 35.000 -532 Descending Albuquerque Center
Fri 02:41:41 PM 35.4381 -108.5950 106° East 484 896 34.800 -1.161 Descending Albuquerque Center
Fri 02:42:43 PM 35.4081 -108.4436 104° East 478 885 32.600 -2.371 Descending Albuquerque Center
Fri 02:43:45 PM 35.4156 -108.2636 87° East 473 875 29.900 -1.742 Descending Albuquerque Center
Fri 02:44:47 PM 35.4231 -108.1167 86° East 462 856 29.000 -1.984 Descending Albuquerque Center
Fri 02:45:49 PM 35.4306 -107.9503 87° East 445 824 25.800 -2.806 Descending Albuquerque Center
Fri 02:46:51 PM 35.4367 -107.8042 87° East 447 827 23.200 -2.565 Descending Albuquerque Center
Fri 02:47:53 PM 35.4442 -107.6386 87° East 441 816 20.500 -2.274 Descending Albuquerque Center
Fri 02:48:55 PM 35.4328 -107.5042 96° East 423 784 18.500 -2.089 Descending Albuquerque Center
Fri 02:49:45 PM 35.4247 -107.3864 95° East 385 713 16.600 -1.964 Descending Albuquerque Center
Fri 02:50:45 PM 35.3728 -107.2667 118° Southeast 363 673 14.900 -1.467 Descending Albuquerque Center
Fri 02:52:00 PM 35.3175 -107.1589 122° Southeast 345 639 13.300 -1.453 Descending Albuquerque Center
Fri 02:52:53 PM 35.2633 -107.0733 128° Southeast 326 604 11.800 -1.682 Descending Albuquerque Center
Fri 02:53:47 PM 35.2047 -107.0053 136° Southeast 318 589 10.300 -1.437 Descending Albuquerque Center
Fri 02:54:04 PM 35.1969 -106.9958 135° Southeast 322 597 10.100 -885 Descending Albuquerque Center
Fri 02:54:48 PM 35.1461 -106.9369 137° Southeast 279 517 9.400 -871 Descending Albuquerque Center
Fri 02:55:06 PM 35.1289 -106.9167 136° Southeast 299 554 9.200 -393 Descending Albuquerque Center
Fri 02:55:49 PM 35.0953 -106.8772 136° Southeast 242 447 9.000 -290 Descending Albuquerque Center
Fri 02:56:08 PM 35.0903 -106.8689 126° Southeast 269 499 8.900  Descending Albuquerque Center
Fri 02:56:55 PM 35.0392 -106.8111 137° Southeast 241 446 9.000  Climbing Albuquerque Center
Fri 02:57:10 PM 35.0364 -106.8075 133° Southeast 255 472 8.900 -787 Descending Albuquerque Center
Fri 02:57:56 PM 34.9922 -106.7739 148° Southeast 207 383 8.200 -774 Descending Albuquerque Center
Fri 02:58:12 PM 34.9872 -106.7689 141° Southeast 226 418 8.100 -1.100 Descending Albuquerque Center
Fri 02:58:56 PM 34.9669 -106.7156 115° Southeast 203 377 7.100 -1.355 Descending Albuquerque Center
Fri 02:59:14 PM 34.9700 -106.6956 79° East 212 393 6.700 -984 Descending Albuquerque Center
Fri 02:59:57 PM 34.9928 -106.6675 45° Northeast 160 296 6.100 -726 Descending Albuquerque Center
Fri 03:01:18 PM 35.0344 -106.6142 46° Northeast 165 306 5.200 -667 Descending Albuquerque Center
Fri 03:03:00 PM 35.0333 -106.6000 90° East  Level FlightAware Approximate

Login

Don't have an account? Register now (free) for customized features, flight alerts, and more!